Time;durP1;ratioP1;P1;durP2;ratioP2;P2;SDS_P1;SDS_P2;PMS_P1;PMS_P2;Temp;Humidity;BMP_temperature;BMP_pressure;BME280_temperature;BME280_humidity;BME280_pressure;Samples;Min_cycle;Max_cycle;Signal;HPM_P1;HPM_P2
2021/06/14 00:00:22;;;;;;;10.75;6.22;;;;;;;;;;1980261;67;20079;-68
2021/06/14 00:02:48;;;;;;;11.25;5.53;;;;;;;;;;1918244;67;20095;-69
2021/06/14 00:05:18;;;;;;;12.82;6.07;;;;;;;;;;1912293;75;20076;-69
2021/06/14 00:07:44;;;;;;;16.73;6.50;;;;;;;;;;1912151;75;20080;-68
2021/06/14 00:10:11;;;;;;;12.20;5.63;;;;;;;;;;1912435;75;20088;-68
2021/06/14 00:12:36;;;;;;;12.98;6.20;;;;;;;;;;1968365;67;20098;-68
2021/06/14 00:15:04;;;;;;;18.27;5.65;;;;;;;;;;1912336;75;20087;-68
2021/06/14 00:17:30;;;;;;;13.40;6.05;;;;;;;;;;1912566;75;20426;-69
2021/06/14 00:19:56;;;;;;;10.23;5.78;;;;;;;;;;1912171;75;20124;-69
2021/06/14 00:22:21;;;;;;;10.55;5.60;;;;;;;;;;1922725;67;20092;-69
2021/06/14 00:24:47;;;;;;;11.43;5.80;;;;;;;;;;1912294;75;20080;-68
2021/06/14 00:27:12;;;;;;;11.93;5.78;;;;;;;;;;1912580;75;20604;-69
2021/06/14 00:29:38;;;;;;;11.88;5.80;;;;;;;;;;1957897;67;20141;-68
2021/06/14 00:32:03;;;;;;;13.25;6.65;;;;;;;;;;1912334;67;20141;-68
2021/06/14 00:34:29;;;;;;;12.30;6.88;;;;;;;;;;2043596;67;20072;-69
2021/06/14 00:36:54;;;;;;;15.98;6.75;;;;;;;;;;1915641;67;20523;-69
2021/06/14 00:39:19;;;;;;;12.35;6.30;;;;;;;;;;1912148;75;20087;-68
2021/06/14 00:41:45;;;;;;;12.15;6.88;;;;;;;;;;1972934;67;20076;-68
2021/06/14 00:44:10;;;;;;;14.45;6.50;;;;;;;;;;1934606;67;20086;-68
2021/06/14 00:46:35;;;;;;;18.65;7.45;;;;;;;;;;1911252;67;20382;-69
2021/06/14 00:49:01;;;;;;;12.07;6.97;;;;;;;;;;1909256;75;20509;-69
2021/06/14 00:51:26;;;;;;;15.43;7.07;;;;;;;;;;1909650;75;20416;-68
2021/06/14 00:53:57;;;;;;;12.82;6.72;;;;;;;;;;1910707;67;20148;-68
2021/06/14 00:56:24;;;;;;;13.07;6.40;;;;;;;;;;1909372;75;20099;-68
2021/06/14 00:58:50;;;;;;;11.35;6.40;;;;;;;;;;1938598;67;20079;-68
2021/06/14 01:01:15;;;;;;;20.50;8.05;;;;;;;;;;1949552;67;20564;-68
2021/06/14 01:03:41;;;;;;;16.92;6.60;;;;;;;;;;1924751;67;20084;-69
2021/06/14 01:06:09;;;;;;;17.00;7.78;;;;;;;;;;1939244;67;20088;-69
2021/06/14 01:08:38;;;;;;;13.07;7.00;;;;;;;;;;1910933;67;20382;-69
2021/06/14 01:11:41;;;;;;;17.33;7.30;;;;;;;;;;1909419;75;20084;-69
2021/06/14 01:14:22;;;;;;;12.00;6.80;;;;;;;;;;1999443;67;20091;-68
2021/06/14 01:17:04;;;;;;;13.48;6.97;;;;;;;;;;1912450;75;20080;-68
2021/06/14 01:19:29;;;;;;;12.93;6.50;;;;;;;;;;1913608;67;20087;-69
2021/06/14 01:22:13;;;;;;;11.57;7.68;;;;;;;;;;1912078;75;20365;-69
2021/06/14 01:24:54;;;;;;;10.57;7.90;;;;;;;;;;1912618;75;20079;-68
2021/06/14 01:27:38;;;;;;;17.63;7.18;;;;;;;;;;1968139;67;20072;-68
2021/06/14 01:30:13;;;;;;;11.80;6.65;;;;;;;;;;2005797;67;20093;-68
2021/06/14 01:32:41;;;;;;;12.75;7.20;;;;;;;;;;1932514;67;20080;-68
2021/06/14 01:35:09;;;;;;;13.77;6.93;;;;;;;;;;1912579;75;20139;-69
2021/06/14 01:37:41;;;;;;;14.93;6.63;;;;;;;;;;1912686;67;20087;-69
2021/06/14 01:40:08;;;;;;;15.20;7.55;;;;;;;;;;1913541;67;20091;-69
2021/06/14 01:42:34;;;;;;;12.52;6.70;;;;;;;;;;1909949;75;20144;-68
2021/06/14 01:45:00;;;;;;;18.17;7.95;;;;;;;;;;1916323;67;20084;-68
2021/06/14 01:47:26;;;;;;;13.77;6.95;;;;;;;;;;1912933;75;20079;-68
2021/06/14 01:49:52;;;;;;;14.75;7.43;;;;;;;;;;1912427;75;20083;-69
2021/06/14 01:52:18;;;;;;;14.32;7.35;;;;;;;;;;1912376;75;20087;-68
2021/06/14 01:54:43;;;;;;;12.35;6.85;;;;;;;;;;2040806;67;20408;-68
2021/06/14 01:57:09;;;;;;;16.08;7.40;;;;;;;;;;1918077;67;20095;-69
2021/06/14 01:59:38;;;;;;;15.15;8.13;;;;;;;;;;1999482;67;20400;-68
2021/06/14 02:02:05;;;;;;;13.57;6.95;;;;;;;;;;1982317;67;20086;-68
2021/06/14 02:04:33;;;;;;;13.00;7.20;;;;;;;;;;2020191;67;20079;-68
2021/06/14 02:06:58;;;;;;;17.05;7.57;;;;;;;;;;1934816;67;20084;-68
2021/06/14 02:09:24;;;;;;;12.40;7.15;;;;;;;;;;2005367;67;20107;-68
2021/06/14 02:11:53;;;;;;;11.75;7.00;;;;;;;;;;1915934;67;20088;-69
2021/06/14 02:14:25;;;;;;;15.45;7.30;;;;;;;;;;1912737;75;20497;-69
2021/06/14 02:16:51;;;;;;;14.82;7.93;;;;;;;;;;1910834;75;20149;-69
2021/06/14 02:19:16;;;;;;;16.15;7.35;;;;;;;;;;1909806;75;20084;-68
2021/06/14 02:21:43;;;;;;;14.45;7.78;;;;;;;;;;1963010;67;20079;-68
2021/06/14 02:24:09;;;;;;;12.25;6.32;;;;;;;;;;2052840;67;20083;-69
2021/06/14 02:26:36;;;;;;;12.18;7.03;;;;;;;;;;1925829;67;20124;-68
2021/06/14 02:29:02;;;;;;;12.50;6.78;;;;;;;;;;1993924;67;20080;-69
2021/06/14 02:31:27;;;;;;;13.93;7.80;;;;;;;;;;1971195;67;20072;-68
2021/06/14 02:33:52;;;;;;;14.30;7.25;;;;;;;;;;1927818;67;20118;-69
2021/06/14 02:36:20;;;;;;;15.77;7.35;;;;;;;;;;1912366;75;20090;-69
2021/06/14 02:38:46;;;;;;;28.23;7.25;;;;;;;;;;1912492;75;20091;-68
2021/06/14 02:41:12;;;;;;;13.43;7.38;;;;;;;;;;1912402;75;20098;-69
2021/06/14 02:43:38;;;;;;;13.07;7.57;;;;;;;;;;1958663;67;20083;-69
2021/06/14 02:46:04;;;;;;;14.98;7.35;;;;;;;;;;1912668;75;20087;-68
2021/06/14 02:48:31;;;;;;;15.98;7.80;;;;;;;;;;1912388;75;20149;-68
2021/06/14 02:50:57;;;;;;;18.88;7.95;;;;;;;;;;1912807;75;20075;-70
2021/06/14 02:53:25;;;;;;;15.88;7.82;;;;;;;;;;2033061;67;20091;-69
2021/06/14 02:56:16;;;;;;;14.65;7.38;;;;;;;;;;1961191;67;20076;-68
2021/06/14 02:58:44;;;;;;;15.27;7.22;;;;;;;;;;1914395;67;20087;-68
2021/06/14 03:01:10;;;;;;;20.80;8.15;;;;;;;;;;1989898;67;20075;-68
2021/06/14 03:03:38;;;;;;;15.15;7.75;;;;;;;;;;1944958;67;20078;-68
2021/06/14 03:06:06;;;;;;;19.33;7.80;;;;;;;;;;1930328;67;20102;-68
2021/06/14 03:08:33;;;;;;;13.20;7.75;;;;;;;;;;1913182;75;20161;-68
2021/06/14 03:11:00;;;;;;;19.67;7.47;;;;;;;;;;1930267;67;20529;-68
2021/06/14 03:13:25;;;;;;;14.00;7.60;;;;;;;;;;1912670;75;20076;-68
2021/06/14 03:15:50;;;;;;;21.13;7.68;;;;;;;;;;1913724;67;20581;-68
2021/06/14 03:18:18;;;;;;;12.32;7.35;;;;;;;;;;1954217;67;20084;-68
2021/06/14 03:20:45;;;;;;;19.85;7.60;;;;;;;;;;1910022;75;20091;-68
2021/06/14 03:23:14;;;;;;;18.83;7.65;;;;;;;;;;1909829;75;20076;-69
2021/06/14 03:25:39;;;;;;;17.17;8.07;;;;;;;;;;1913145;67;20092;-68
2021/06/14 03:28:05;;;;;;;19.67;9.63;;;;;;;;;;1912703;75;20438;-68
2021/06/14 03:30:31;;;;;;;17.23;9.27;;;;;;;;;;1938965;67;20410;-68
2021/06/14 03:32:58;;;;;;;19.60;11.75;;;;;;;;;;1983332;67;20477;-68
2021/06/14 03:35:23;;;;;;;19.33;10.15;;;;;;;;;;1912639;75;20088;-68
2021/06/14 03:37:49;;;;;;;20.40;11.30;;;;;;;;;;1912127;67;20088;-67
2021/06/14 03:40:17;;;;;;;31.55;10.88;;;;;;;;;;1912117;75;20504;-67
2021/06/14 03:42:43;;;;;;;19.92;10.18;;;;;;;;;;1913240;75;20080;-68
2021/06/14 03:45:10;;;;;;;19.63;9.80;;;;;;;;;;1955946;67;20096;-68
2021/06/14 03:47:36;;;;;;;19.15;9.65;;;;;;;;;;1913538;75;20083;-69
2021/06/14 03:50:07;;;;;;;26.38;8.57;;;;;;;;;;1913438;75;20133;-68
2021/06/14 03:52:33;;;;;;;16.58;8.63;;;;;;;;;;1985997;67;20388;-69
2021/06/14 03:54:58;;;;;;;14.52;8.15;;;;;;;;;;1914106;67;20098;-68
2021/06/14 03:57:24;;;;;;;20.30;8.18;;;;;;;;;;1921281;67;20557;-68
2021/06/14 03:59:49;;;;;;;14.25;7.85;;;;;;;;;;2014271;67;20086;-68
2021/06/14 04:02:14;;;;;;;14.63;7.75;;;;;;;;;;1918628;67;20079;-68
2021/06/14 04:04:45;;;;;;;15.02;8.20;;;;;;;;;;1913549;67;20443;-69
2021/06/14 04:07:11;;;;;;;19.75;7.55;;;;;;;;;;1909746;75;20096;-68
2021/06/14 04:09:36;;;;;;;17.85;8.25;;;;;;;;;;1917726;67;20122;-66
2021/06/14 04:12:03;;;;;;;16.35;8.00;;;;;;;;;;1957979;67;20091;-69
2021/06/14 04:14:29;;;;;;;16.70;8.25;;;;;;;;;;1912523;75;20086;-68
2021/06/14 04:16:55;;;;;;;12.23;7.40;;;;;;;;;;1912504;75;20131;-69
2021/06/14 04:19:20;;;;;;;12.40;7.45;;;;;;;;;;1929503;67;20100;-67
2021/06/14 04:21:45;;;;;;;16.15;8.10;;;;;;;;;;1913828;67;20113;-67
2021/06/14 04:24:11;;;;;;;19.92;7.82;;;;;;;;;;1964557;67;20088;-68
2021/06/14 04:26:37;;;;;;;17.48;8.05;;;;;;;;;;1940217;67;20408;-68
2021/06/14 04:29:03;;;;;;;23.50;8.75;;;;;;;;;;1933275;67;20087;-68
2021/06/14 04:31:29;;;;;;;18.48;8.02;;;;;;;;;;1943208;67;20087;-68
2021/06/14 04:33:54;;;;;;;15.85;7.88;;;;;;;;;;1953743;67;20566;-68
2021/06/14 04:36:19;;;;;;;19.45;8.05;;;;;;;;;;1941253;67;20107;-68
2021/06/14 04:38:45;;;;;;;15.45;7.68;;;;;;;;;;2017365;67;20084;-68
2021/06/14 04:41:10;;;;;;;14.02;7.43;;;;;;;;;;1912013;75;20179;-68
2021/06/14 04:43:36;;;;;;;17.75;7.70;;;;;;;;;;1993436;67;20488;-69
2021/06/14 04:46:01;;;;;;;13.27;7.90;;;;;;;;;;1911560;75;20084;-68
2021/06/14 04:48:26;;;;;;;28.23;8.70;;;;;;;;;;1912082;75;20086;-68
2021/06/14 04:50:52;;;;;;;19.40;8.00;;;;;;;;;;1911691;75;20492;-68
2021/06/14 04:53:17;;;;;;;13.48;7.35;;;;;;;;;;1911303;67;20092;-68
2021/06/14 04:55:43;;;;;;;13.32;7.20;;;;;;;;;;1912416;75;20080;-68
2021/06/14 04:58:08;;;;;;;17.60;7.40;;;;;;;;;;1954531;67;20080;-68
2021/06/14 05:00:34;;;;;;;14.25;8.07;;;;;;;;;;1973228;67;20087;-68
2021/06/14 05:03:00;;;;;;;17.20;8.13;;;;;;;;;;1972143;67;20087;-69
2021/06/14 05:05:25;;;;;;;11.88;7.20;;;;;;;;;;1931361;67;20153;-68
2021/06/14 05:07:51;;;;;;;16.30;7.95;;;;;;;;;;1926524;67;20187;-67
2021/06/14 05:10:16;;;;;;;18.33;7.55;;;;;;;;;;1913860;67;20092;-68
2021/06/14 05:12:42;;;;;;;24.65;14.05;;;;;;;;;;1913622;75;20084;-68
2021/06/14 05:15:08;;;;;;;15.68;7.78;;;;;;;;;;1920952;67;20396;-68
2021/06/14 05:17:33;;;;;;;17.45;7.68;;;;;;;;;;2031714;67;20084;-67
2021/06/14 05:19:58;;;;;;;13.38;7.35;;;;;;;;;;1923132;67;20091;-69
2021/06/14 05:22:24;;;;;;;18.30;8.70;;;;;;;;;;1915341;67;20088;-68
2021/06/14 05:24:50;;;;;;;16.30;8.00;;;;;;;;;;2009339;67;20080;-70
2021/06/14 05:27:15;;;;;;;14.73;7.60;;;;;;;;;;1917106;67;20485;-69
2021/06/14 05:29:40;;;;;;;19.42;7.70;;;;;;;;;;1913602;75;20401;-68
2021/06/14 05:32:06;;;;;;;23.95;8.38;;;;;;;;;;1914331;67;20091;-69
2021/06/14 05:34:31;;;;;;;18.95;7.32;;;;;;;;;;1932728;67;20436;-67
2021/06/14 05:36:57;;;;;;;16.02;7.72;;;;;;;;;;1913686;75;20091;-68
2021/06/14 05:39:22;;;;;;;16.00;7.22;;;;;;;;;;1913719;75;20084;-69
2021/06/14 05:41:48;;;;;;;16.30;8.10;;;;;;;;;;1913437;75;20080;-68
2021/06/14 05:44:14;;;;;;;14.88;7.28;;;;;;;;;;1913534;75;20071;-68
2021/06/14 05:46:40;;;;;;;15.80;7.35;;;;;;;;;;1915052;67;20111;-68
2021/06/14 05:49:05;;;;;;;19.50;7.63;;;;;;;;;;1914099;67;20194;-69
2021/06/14 05:51:31;;;;;;;19.67;7.65;;;;;;;;;;1913573;75;20080;-67
2021/06/14 05:53:56;;;;;;;15.50;7.28;;;;;;;;;;1914133;75;20083;-68
2021/06/14 05:56:23;;;;;;;19.10;9.52;;;;;;;;;;1913804;75;20091;-69
2021/06/14 05:58:48;;;;;;;16.92;7.90;;;;;;;;;;1913681;75;20084;-69
2021/06/14 06:01:13;;;;;;;15.82;8.73;;;;;;;;;;1914739;67;20107;-69
2021/06/14 06:03:39;;;;;;;14.80;7.43;;;;;;;;;;2038993;67;20512;-68
2021/06/14 06:06:04;;;;;;;19.63;8.15;;;;;;;;;;1910948;75;20132;-68
2021/06/14 06:08:30;;;;;;;27.27;7.72;;;;;;;;;;1910674;75;20091;-68
2021/06/14 06:10:55;;;;;;;14.27;7.57;;;;;;;;;;1913220;67;20508;-68
2021/06/14 06:13:20;;;;;;;15.15;7.50;;;;;;;;;;1913301;75;20084;-68
2021/06/14 06:15:45;;;;;;;17.38;6.90;;;;;;;;;;1913836;75;20088;-69
2021/06/14 06:18:11;;;;;;;18.55;7.35;;;;;;;;;;1916663;67;20429;-68
2021/06/14 06:20:36;;;;;;;18.17;7.28;;;;;;;;;;1924454;67;20092;-68
2021/06/14 06:23:03;;;;;;;12.95;6.88;;;;;;;;;;1915650;67;20132;-68
2021/06/14 06:25:29;;;;;;;14.98;7.15;;;;;;;;;;1927202;67;20148;-67
2021/06/14 06:27:55;;;;;;;20.33;7.13;;;;;;;;;;1919141;67;20076;-69
2021/06/14 06:30:24;;;;;;;16.35;7.15;;;;;;;;;;2037498;67;20084;-68
2021/06/14 06:32:50;;;;;;;19.90;8.48;;;;;;;;;;1913195;67;20523;-68
2021/06/14 06:35:16;;;;;;;22.80;8.57;;;;;;;;;;2002328;67;20084;-68
2021/06/14 06:37:42;;;;;;;17.05;6.97;;;;;;;;;;1962053;67;20079;-68
2021/06/14 06:40:08;;;;;;;12.88;7.75;;;;;;;;;;1913212;75;20467;-68
2021/06/14 06:42:34;;;;;;;14.40;7.47;;;;;;;;;;2018299;67;20072;-70
2021/06/14 06:44:59;;;;;;;15.18;7.05;;;;;;;;;;1978187;67;20707;-68
2021/06/14 06:47:25;;;;;;;19.70;6.43;;;;;;;;;;2057866;67;20079;-67
2021/06/14 06:49:50;;;;;;;15.43;6.78;;;;;;;;;;1952744;67;20137;-69
2021/06/14 06:52:15;;;;;;;11.38;5.97;;;;;;;;;;1941753;67;20116;-68
2021/06/14 06:54:41;;;;;;;12.45;6.25;;;;;;;;;;1992316;67;20092;-69
2021/06/14 06:57:07;;;;;;;16.67;5.88;;;;;;;;;;1932511;67;20092;-68
2021/06/14 06:59:33;;;;;;;10.93;6.75;;;;;;;;;;1923695;67;20515;-68
2021/06/14 07:01:58;;;;;;;16.50;6.60;;;;;;;;;;1928440;67;20084;-69
2021/06/14 07:04:23;;;;;;;9.55;5.03;;;;;;;;;;1954781;67;20084;-69
2021/06/14 07:06:49;;;;;;;13.07;5.68;;;;;;;;;;1918686;67;20500;-68
2021/06/14 07:09:14;;;;;;;8.48;5.07;;;;;;;;;;1936714;67;20370;-68
2021/06/14 07:11:42;;;;;;;13.98;5.80;;;;;;;;;;1991517;67;20401;-68
2021/06/14 07:14:07;;;;;;;11.85;5.93;;;;;;;;;;2030555;67;20535;-69
2021/06/14 07:16:34;;;;;;;10.68;5.22;;;;;;;;;;1949901;67;20080;-69
2021/06/14 07:19:00;;;;;;;9.10;5.05;;;;;;;;;;1990589;67;20079;-69
2021/06/14 07:21:27;;;;;;;15.52;5.30;;;;;;;;;;2042464;67;20082;-68
2021/06/14 07:23:53;;;;;;;10.25;4.97;;;;;;;;;;1927512;67;20101;-68
2021/06/14 07:26:19;;;;;;;16.55;5.03;;;;;;;;;;1945318;67;20098;-68
2021/06/14 07:28:44;;;;;;;15.07;5.85;;;;;;;;;;1931902;67;20484;-68
2021/06/14 07:31:10;;;;;;;15.05;5.40;;;;;;;;;;1955809;67;20519;-66
2021/06/14 07:33:36;;;;;;;13.43;5.28;;;;;;;;;;1934614;67;20122;-67
2021/06/14 07:36:03;;;;;;;15.55;5.53;;;;;;;;;;1910376;75;20145;-67
2021/06/14 07:38:30;;;;;;;10.75;4.82;;;;;;;;;;1964595;67;20098;-67
2021/06/14 07:40:55;;;;;;;11.85;4.57;;;;;;;;;;1925239;67;20496;-67
2021/06/14 07:43:20;;;;;;;13.45;5.10;;;;;;;;;;1913228;75;20094;-67
2021/06/14 07:45:48;;;;;;;8.10;4.30;;;;;;;;;;1926115;67;20079;-67
2021/06/14 07:48:14;;;;;;;13.10;4.95;;;;;;;;;;1958088;67;20480;-69
2021/06/14 07:50:40;;;;;;;12.38;5.32;;;;;;;;;;1917016;67;20136;-67
2021/06/14 07:53:06;;;;;;;8.68;4.20;;;;;;;;;;1912994;75;20152;-67
2021/06/14 07:55:32;;;;;;;10.00;4.45;;;;;;;;;;1915302;67;20080;-67
2021/06/14 07:57:58;;;;;;;9.30;4.20;;;;;;;;;;1955554;67;20528;-67
2021/06/14 08:00:23;;;;;;;9.65;4.70;;;;;;;;;;1909974;75;20099;-66
2021/06/14 08:02:49;;;;;;;11.27;5.13;;;;;;;;;;1910040;75;20088;-67
2021/06/14 08:05:15;;;;;;;13.43;5.05;;;;;;;;;;1928176;67;20185;-67
2021/06/14 08:07:41;;;;;;;17.17;5.43;;;;;;;;;;1912836;75;20095;-67
2021/06/14 08:10:10;;;;;;;9.00;4.70;;;;;;;;;;1915404;67;20129;-67
2021/06/14 08:12:41;;;;;;;13.90;4.72;;;;;;;;;;1925687;67;20149;-68
2021/06/14 08:15:07;;;;;;;14.13;5.07;;;;;;;;;;1937271;67;20091;-68
2021/06/14 08:17:32;;;;;;;8.80;3.95;;;;;;;;;;1912746;75;20127;-67
2021/06/14 08:20:10;;;;;;;6.47;3.70;;;;;;;;;;1936672;67;20110;-67
2021/06/14 08:25:20;;;;;;;10.63;4.15;;;;;;;;;;1922239;67;20193;-68
2021/06/14 08:27:46;;;;;;;7.78;3.38;;;;;;;;;;1915782;67;20080;-68
2021/06/14 08:30:18;;;;;;;9.30;3.95;;;;;;;;;;1916757;67;20146;-68
2021/06/14 08:32:43;;;;;;;10.67;4.17;;;;;;;;;;1915992;67;20098;-68
2021/06/14 08:35:13;;;;;;;7.80;3.50;;;;;;;;;;1924307;67;20308;-69
2021/06/14 08:37:40;;;;;;;6.97;3.50;;;;;;;;;;1918074;67;20106;-68
2021/06/14 08:40:07;;;;;;;13.05;4.03;;;;;;;;;;1975615;67;20080;-68
2021/06/14 08:42:32;;;;;;;7.65;3.65;;;;;;;;;;1914204;75;20080;-70
2021/06/14 08:44:58;;;;;;;9.85;3.70;;;;;;;;;;1918636;67;20373;-69
2021/06/14 08:47:24;;;;;;;9.90;3.97;;;;;;;;;;1918146;67;20488;-70
2021/06/14 08:49:50;;;;;;;11.10;4.00;;;;;;;;;;1914933;67;20084;-70
2021/06/14 08:52:16;;;;;;;15.07;4.18;;;;;;;;;;1912626;75;20090;-71
2021/06/14 08:54:43;;;;;;;13.45;4.78;;;;;;;;;;1936620;67;20128;-70
2021/06/14 08:57:11;;;;;;;10.27;3.83;;;;;;;;;;1947304;67;20096;-71
2021/06/14 08:59:38;;;;;;;6.43;3.88;;;;;;;;;;1911929;67;20503;-69
2021/06/14 09:02:04;;;;;;;9.07;3.97;;;;;;;;;;1912800;75;20149;-68
2021/06/14 09:04:29;;;;;;;7.55;3.78;;;;;;;;;;1921687;67;20088;-68
2021/06/14 09:06:54;;;;;;;9.95;3.78;;;;;;;;;;1914138;67;20485;-71
2021/06/14 09:09:20;;;;;;;11.25;3.78;;;;;;;;;;1914277;67;20106;-69
2021/06/14 09:11:51;;;;;;;13.25;3.95;;;;;;;;;;1913657;75;20079;-69
2021/06/14 09:14:21;;;;;;;9.30;3.90;;;;;;;;;;1914017;75;20079;-69
2021/06/14 09:16:47;;;;;;;6.03;3.60;;;;;;;;;;1958236;67;20087;-70
2021/06/14 09:19:48;;;;;;;11.35;3.55;;;;;;;;;;1914208;75;20084;-69
2021/06/14 09:22:18;;;;;;;9.60;3.85;;;;;;;;;;1913218;75;20383;-69
2021/06/14 09:25:02;;;;;;;9.23;3.78;;;;;;;;;;1915835;67;20080;-69
2021/06/14 09:27:39;;;;;;;14.65;3.40;;;;;;;;;;1915715;67;20096;-69
2021/06/14 09:30:14;;;;;;;7.55;3.30;;;;;;;;;;1915038;67;20080;-70
2021/06/14 09:32:59;;;;;;;6.63;3.53;;;;;;;;;;1913531;75;20098;-69
2021/06/14 09:35:29;;;;;;;7.68;4.20;;;;;;;;;;1955287;67;20095;-67
2021/06/14 09:37:56;;;;;;;14.00;3.72;;;;;;;;;;2021522;67;20519;-68
2021/06/14 09:40:35;;;;;;;11.13;3.80;;;;;;;;;;1912959;75;20573;-69
2021/06/14 09:43:01;;;;;;;10.20;3.60;;;;;;;;;;1913572;67;20114;-69
2021/06/14 09:45:26;;;;;;;7.45;3.67;;;;;;;;;;1930143;67;20095;-73
2021/06/14 09:47:54;;;;;;;11.43;3.58;;;;;;;;;;1910069;75;20370;-69
2021/06/14 09:50:31;;;;;;;11.23;3.72;;;;;;;;;;1910353;75;20088;-68
2021/06/14 09:53:12;;;;;;;10.43;3.70;;;;;;;;;;1920453;67;20080;-70
2021/06/14 09:55:39;;;;;;;10.48;3.88;;;;;;;;;;1943213;67;20084;-70
2021/06/14 09:58:16;;;;;;;8.63;3.95;;;;;;;;;;1913756;67;20084;-69
2021/06/14 10:00:48;;;;;;;9.13;3.58;;;;;;;;;;1913246;75;20102;-69
2021/06/14 10:03:13;;;;;;;11.97;3.80;;;;;;;;;;1914332;67;20141;-67
2021/06/14 10:05:50;;;;;;;5.93;3.33;;;;;;;;;;1910244;75;20313;-68
2021/06/14 10:08:27;;;;;;;6.50;3.83;;;;;;;;;;2002982;67;20092;-68
2021/06/14 10:11:18;;;;;;;9.75;3.42;;;;;;;;;;1914414;67;20090;-68
2021/06/14 10:13:47;;;;;;;12.70;3.50;;;;;;;;;;1917293;67;20092;-67
2021/06/14 10:16:24;;;;;;;8.52;3.65;;;;;;;;;;1945983;67;20083;-68
2021/06/14 10:19:00;;;;;;;7.85;3.42;;;;;;;;;;1910253;75;20076;-69
2021/06/14 10:21:29;;;;;;;12.48;4.28;;;;;;;;;;1909891;75;20091;-68
2021/06/14 10:23:56;;;;;;;9.65;3.92;;;;;;;;;;1910953;75;20094;-69
2021/06/14 10:26:22;;;;;;;11.60;3.40;;;;;;;;;;1912894;75;20139;-69
2021/06/14 10:28:48;;;;;;;6.38;3.85;;;;;;;;;;1912301;67;20143;-66
2021/06/14 10:31:14;;;;;;;8.98;3.70;;;;;;;;;;1915428;67;20098;-69
2021/06/14 10:33:41;;;;;;;7.47;4.00;;;;;;;;;;1912413;67;20148;-68
2021/06/14 10:36:07;;;;;;;12.63;4.30;;;;;;;;;;1910264;75;20084;-67
2021/06/14 10:38:36;;;;;;;13.73;4.72;;;;;;;;;;1909655;75;20084;-69
2021/06/14 10:41:02;;;;;;;13.57;4.35;;;;;;;;;;1910013;75;20094;-69
2021/06/14 10:43:28;;;;;;;11.73;3.70;;;;;;;;;;1914207;67;20100;-68
2021/06/14 10:45:55;;;;;;;12.10;5.13;;;;;;;;;;2015342;67;20090;-67
2021/06/14 10:48:29;;;;;;;15.95;4.45;;;;;;;;;;1912644;75;20438;-67
2021/06/14 10:50:55;;;;;;;9.38;3.90;;;;;;;;;;1913490;75;20432;-67
2021/06/14 10:53:28;;;;;;;16.92;3.67;;;;;;;;;;1950492;67;20072;-67
2021/06/14 10:55:55;;;;;;;10.15;4.18;;;;;;;;;;1913269;75;20084;-68
2021/06/14 10:58:22;;;;;;;12.02;3.42;;;;;;;;;;1914112;67;20091;-67
2021/06/14 11:01:07;;;;;;;14.10;3.47;;;;;;;;;;1913197;75;20094;-69
2021/06/14 11:03:43;;;;;;;11.52;3.78;;;;;;;;;;2009636;67;20076;-69
2021/06/14 11:06:23;;;;;;;9.23;3.28;;;;;;;;;;1913254;75;20091;-69
2021/06/14 11:09:18;;;;;;;7.35;2.72;;;;;;;;;;1912612;75;20235;-69
2021/06/14 11:11:59;;;;;;;6.13;3.10;;;;;;;;;;1948336;67;20197;-68
2021/06/14 11:14:32;;;;;;;16.10;3.42;;;;;;;;;;1921940;67;20502;-67
2021/06/14 11:17:12;;;;;;;;;;;;;;;;;;1913121;75;20135;-68
2021/06/14 11:19:37;;;;;;;14.88;3.17;;;;;;;;;;1910988;75;20440;-67
2021/06/14 11:22:04;;;;;;;6.90;2.90;;;;;;;;;;1968697;67;20088;-69
2021/06/14 11:24:34;;;;;;;10.23;3.10;;;;;;;;;;1909552;75;20080;-68
2021/06/14 11:26:59;;;;;;;9.68;3.55;;;;;;;;;;1909829;75;20139;-69
2021/06/14 11:29:25;;;;;;;9.50;3.30;;;;;;;;;;2016232;67;20091;-69
2021/06/14 11:31:57;;;;;;;14.02;3.97;;;;;;;;;;1912558;75;20088;-68
2021/06/14 11:34:22;;;;;;;12.88;3.35;;;;;;;;;;1913665;75;20084;-69
2021/06/14 11:36:57;;;;;;;10.50;3.58;;;;;;;;;;1934005;67;20098;-69
2021/06/14 11:39:24;;;;;;;10.63;3.70;;;;;;;;;;1981738;67;20080;-69
2021/06/14 11:41:52;;;;;;;9.52;3.38;;;;;;;;;;1974425;67;20492;-69
2021/06/14 11:44:23;;;;;;;11.32;3.30;;;;;;;;;;1913801;67;20140;-69
2021/06/14 11:46:53;;;;;;;5.20;2.83;;;;;;;;;;1912871;75;20146;-68
2021/06/14 11:49:22;;;;;;;10.13;3.22;;;;;;;;;;1912575;75;20088;-68
2021/06/14 11:51:47;;;;;;;8.38;2.78;;;;;;;;;;2003934;67;20130;-68
2021/06/14 11:54:16;;;;;;;7.15;2.85;;;;;;;;;;1910194;75;20080;-69
2021/06/14 11:56:42;;;;;;;13.27;3.13;;;;;;;;;;1923531;67;20088;-68
2021/06/14 11:59:07;;;;;;;10.98;2.88;;;;;;;;;;1917132;67;20132;-67
2021/06/14 12:01:36;;;;;;;6.05;2.60;;;;;;;;;;1909887;75;20091;-68
2021/06/14 12:04:05;;;;;;;15.23;3.22;;;;;;;;;;1909606;75;20488;-69
2021/06/14 12:06:41;;;;;;;8.18;3.03;;;;;;;;;;1977619;67;20098;-68
2021/06/14 12:09:11;;;;;;;13.15;3.00;;;;;;;;;;1912324;75;20132;-69
2021/06/14 12:11:38;;;;;;;9.00;2.97;;;;;;;;;;1922172;67;20136;-68
2021/06/14 12:14:13;;;;;;;6.05;2.97;;;;;;;;;;1912301;75;20137;-69
2021/06/14 12:16:39;;;;;;;8.48;2.53;;;;;;;;;;1909880;75;20084;-70
2021/06/14 12:19:05;;;;;;;6.97;2.58;;;;;;;;;;1909585;75;20088;-69
2021/06/14 12:21:31;;;;;;;7.72;2.47;;;;;;;;;;1909360;75;20095;-68
2021/06/14 12:23:57;;;;;;;9.02;2.58;;;;;;;;;;1909315;75;20084;-68
2021/06/14 12:26:22;;;;;;;4.03;2.35;;;;;;;;;;1959389;67;20408;-68
2021/06/14 12:28:48;;;;;;;6.40;2.38;;;;;;;;;;1918329;67;20527;-68
2021/06/14 12:31:14;;;;;;;8.70;2.45;;;;;;;;;;1912582;75;20084;-68
2021/06/14 12:33:43;;;;;;;6.57;2.40;;;;;;;;;;1912344;75;20088;-67
2021/06/14 12:36:12;;;;;;;16.13;3.55;;;;;;;;;;1967175;67;20550;-68
2021/06/14 12:38:46;;;;;;;6.18;2.50;;;;;;;;;;1912447;75;20084;-68
2021/06/14 12:41:12;;;;;;;4.47;2.05;;;;;;;;;;1916504;67;20087;-68
2021/06/14 12:43:37;;;;;;;5.78;2.67;;;;;;;;;;1912679;75;20095;-68
2021/06/14 12:46:02;;;;;;;3.70;2.30;;;;;;;;;;1910567;67;20374;-68
2021/06/14 12:48:28;;;;;;;4.90;2.22;;;;;;;;;;1985848;67;20435;-68
2021/06/14 12:50:55;;;;;;;7.43;2.25;;;;;;;;;;1912644;75;20080;-69
2021/06/14 12:53:23;;;;;;;9.80;2.63;;;;;;;;;;1912642;75;20102;-69
2021/06/14 12:55:50;;;;;;;4.60;2.10;;;;;;;;;;1964805;67;20598;-69
2021/06/14 12:58:17;;;;;;;12.63;2.78;;;;;;;;;;1915995;67;20488;-68
2021/06/14 13:00:48;;;;;;;5.35;2.22;;;;;;;;;;1912752;75;20084;-68
2021/06/14 13:03:14;;;;;;;6.40;2.67;;;;;;;;;;1912376;75;20131;-67
2021/06/14 13:05:47;;;;;;;6.53;2.53;;;;;;;;;;1964939;67;20088;-68
2021/06/14 13:08:17;;;;;;;8.88;3.28;;;;;;;;;;1912513;75;20141;-68
2021/06/14 13:10:53;;;;;;;5.22;2.20;;;;;;;;;;1912874;75;20087;-68
2021/06/14 13:13:21;;;;;;;10.40;2.20;;;;;;;;;;1913838;67;20099;-67
2021/06/14 13:15:57;;;;;;;6.13;2.10;;;;;;;;;;1909713;75;20569;-68
2021/06/14 13:18:23;;;;;;;5.45;2.20;;;;;;;;;;1910066;75;20145;-68
2021/06/14 13:20:49;;;;;;;5.40;2.30;;;;;;;;;;1909548;75;20092;-67
2021/06/14 13:23:17;;;;;;;8.60;2.20;;;;;;;;;;1914971;67;20087;-67
2021/06/14 13:25:46;;;;;;;5.38;2.03;;;;;;;;;;1912729;75;20178;-67
2021/06/14 13:28:24;;;;;;;10.55;2.00;;;;;;;;;;1922333;67;20080;-68
2021/06/14 13:30:50;;;;;;;10.55;2.70;;;;;;;;;;1913301;75;20083;-68
2021/06/14 13:33:20;;;;;;;7.60;2.63;;;;;;;;;;1913496;67;20538;-68
2021/06/14 13:35:51;;;;;;;4.72;2.45;;;;;;;;;;1912814;75;20088;-68
2021/06/14 13:38:27;;;;;;;7.57;2.42;;;;;;;;;;1912763;75;20083;-68
2021/06/14 13:40:54;;;;;;;5.47;2.25;;;;;;;;;;1931800;67;20095;-68
2021/06/14 13:43:26;;;;;;;13.35;3.00;;;;;;;;;;1915370;67;20099;-68
2021/06/14 13:45:52;;;;;;;7.90;2.10;;;;;;;;;;1932716;67;20403;-67
2021/06/14 13:48:20;;;;;;;5.10;2.30;;;;;;;;;;1921687;67;20087;-67
2021/06/14 13:50:48;;;;;;;10.85;2.33;;;;;;;;;;1980513;67;20072;-68
2021/06/14 13:53:20;;;;;;;9.63;2.42;;;;;;;;;;1962021;67;20083;-67
2021/06/14 13:55:56;;;;;;;5.20;2.03;;;;;;;;;;1937593;67;20099;-67
2021/06/14 13:58:39;;;;;;;8.35;2.55;;;;;;;;;;1912658;67;20098;-66
2021/06/14 14:01:09;;;;;;;7.60;2.45;;;;;;;;;;1940849;67;20135;-66
2021/06/14 14:03:36;;;;;;;10.45;2.60;;;;;;;;;;1912037;67;20496;-67
2021/06/14 14:06:01;;;;;;;6.63;2.78;;;;;;;;;;1922827;67;20080;-67
2021/06/14 14:08:26;;;;;;;12.05;2.80;;;;;;;;;;1909815;75;20385;-66
2021/06/14 14:10:52;;;;;;;7.70;2.90;;;;;;;;;;1937468;67;20098;-67
2021/06/14 14:13:22;;;;;;;5.85;2.42;;;;;;;;;;2018941;67;20130;-66
2021/06/14 14:15:51;;;;;;;9.45;3.05;;;;;;;;;;1959755;67;20152;-68
2021/06/14 14:18:17;;;;;;;14.48;3.10;;;;;;;;;;1913727;67;20182;-68
2021/06/14 14:20:44;;;;;;;9.98;2.90;;;;;;;;;;1925440;67;20099;-68
2021/06/14 14:23:10;;;;;;;5.63;2.55;;;;;;;;;;2003481;67;20088;-68
2021/06/14 14:25:35;;;;;;;7.35;2.28;;;;;;;;;;1962649;67;20365;-67
2021/06/14 14:28:02;;;;;;;7.28;2.63;;;;;;;;;;1956686;67;20400;-67
2021/06/14 14:30:43;;;;;;;8.02;2.80;;;;;;;;;;1917262;67;20095;-67
2021/06/14 14:33:09;;;;;;;9.75;3.13;;;;;;;;;;1933601;67;20393;-67
2021/06/14 14:36:05;;;;;;;7.15;2.60;;;;;;;;;;2009839;67;20079;-68
2021/06/14 14:38:34;;;;;;;6.47;2.83;;;;;;;;;;1913223;75;20075;-67
2021/06/14 14:41:03;;;;;;;7.65;2.72;;;;;;;;;;1933913;67;20404;-67